Time;durP1;ratioP1;P1;durP2;ratioP2;P2;SDS_P1;SDS_P2;PMS_P1;PMS_P2;Temp;Humidity;BMP_temperature;BMP_pressure;BME280_temperature;BME280_humidity;BME280_pressure;Samples;Min_cycle;Max_cycle;Signal;HPM_P1;HPM_P2
2022/04/25 00:02:25;;;;;;;15.85;2.75;;;7.00;99.90;;;;;;6101993;23;20450;-90
2022/04/25 00:04:51;;;;;;;16.88;3.05;;;6.90;99.90;;;;;;6102108;23;20088;-90
2022/04/25 00:07:17;;;;;;;18.38;3.92;;;6.90;99.90;;;;;;6101955;23;20486;-90
2022/04/25 00:09:44;;;;;;;8.88;2.75;;;6.90;99.90;;;;;;6102395;23;20002;-90
2022/04/25 00:12:10;;;;;;;9.07;2.80;;;6.90;99.90;;;;;;6101794;23;20001;-90
2022/04/25 00:14:36;;;;;;;15.18;3.42;;;6.90;99.90;;;;;;6101302;23;20013;-90
2022/04/25 00:17:02;;;;;;;12.30;2.78;;;6.80;99.90;;;;;;6101206;23;20101;-91
2022/04/25 00:19:28;;;;;;;14.95;3.20;;;6.80;99.90;;;;;;6101344;23;20538;-91
2022/04/25 00:21:56;;;;;;;11.02;3.03;;;6.90;99.90;;;;;;6100989;23;20096;-90
2022/04/25 00:24:22;;;;;;;14.55;3.00;;;6.90;99.90;;;;;;6101476;23;20069;-91
2022/04/25 00:26:48;;;;;;;11.25;2.60;;;6.90;99.90;;;;;;6101266;23;20031;-91
2022/04/25 00:29:14;;;;;;;17.67;3.50;;;6.80;99.90;;;;;;6100727;23;20002;-90
2022/04/25 00:31:40;;;;;;;6.88;3.15;;;6.90;99.90;;;;;;6101213;23;20014;-90
2022/04/25 00:34:06;;;;;;;15.05;3.42;;;6.90;99.90;;;;;;6100797;23;20017;-91
2022/04/25 00:36:32;;;;;;;21.17;3.72;;;6.80;99.90;;;;;;6100705;23;20031;-90
2022/04/25 00:38:58;;;;;;;16.02;3.00;;;6.70;99.90;;;;;;6101232;23;20088;-90
2022/04/25 00:41:24;;;;;;;13.25;3.17;;;6.70;99.90;;;;;;6100819;23;20002;-90
2022/04/25 00:43:55;;;;;;;13.93;3.10;;;6.70;99.90;;;;;;6100651;23;20094;-90
2022/04/25 00:46:22;;;;;;;11.25;3.45;;;6.70;99.90;;;;;;6101805;23;20073;-91
2022/04/25 00:48:48;;;;;;;11.90;3.38;;;6.60;99.90;;;;;;6100515;23;20021;-90
2022/04/25 00:51:15;;;;;;;12.90;2.95;;;6.60;99.90;;;;;;6100967;23;20006;-89
2022/04/25 00:53:43;;;;;;;9.15;2.90;;;6.60;99.90;;;;;;6100894;23;20089;-90
2022/04/25 00:56:12;;;;;;;12.48;3.08;;;6.60;99.90;;;;;;6101180;23;20010;-90
2022/04/25 00:58:38;;;;;;;6.55;2.65;;;6.50;99.90;;;;;;6101309;23;20350;-90
2022/04/25 01:01:04;;;;;;;12.32;3.20;;;6.50;99.90;;;;;;6101772;23;20053;-91
2022/04/25 01:03:33;;;;;;;11.73;3.33;;;6.50;99.90;;;;;;6113736;23;20013;-90
2022/04/25 01:05:59;;;;;;;13.98;3.00;;;6.50;99.90;;;;;;6108994;23;20037;-90
2022/04/25 01:08:26;;;;;;;11.80;3.38;;;6.50;99.90;;;;;;6102188;23;20018;-91
2022/04/25 01:10:52;;;;;;;12.48;3.58;;;6.40;99.90;;;;;;6102586;23;20013;-89
2022/04/25 01:13:18;;;;;;;18.15;3.63;;;6.40;99.90;;;;;;6102067;23;20009;-90
2022/04/25 01:15:44;;;;;;;13.82;3.47;;;6.30;99.90;;;;;;6102636;23;20001;-90
2022/04/25 01:18:10;;;;;;;14.13;3.28;;;6.30;99.90;;;;;;6102477;23;20013;-89
2022/04/25 01:20:36;;;;;;;9.80;3.33;;;6.20;99.90;;;;;;6102307;23;20002;-90
2022/04/25 01:28:34;;;;;;;9.48;2.97;;;6.20;99.90;;;;;;6129599;23;20081;-89
2022/04/25 01:31:00;;;;;;;16.25;3.60;;;6.10;99.90;;;;;;6102009;23;20050;-90
2022/04/25 01:33:26;;;;;;;10.32;2.92;;;6.10;99.90;;;;;;6100564;23;20006;-90
2022/04/25 01:35:52;;;;;;;11.65;2.78;;;6.10;99.90;;;;;;6100523;23;20009;-90
2022/04/25 01:38:17;;;;;;;10.07;2.85;;;6.00;99.90;;;;;;6101084;23;20024;-91
2022/04/25 01:40:43;;;;;;;8.25;2.90;;;6.00;99.90;;;;;;6101392;23;20002;-89
2022/04/25 01:43:09;;;;;;;10.48;3.10;;;5.90;99.90;;;;;;6101241;23;20069;-89
2022/04/25 01:45:34;;;;;;;10.38;2.80;;;5.90;99.90;;;;;;6104302;23;20114;-89
2022/04/25 01:48:00;;;;;;;11.30;3.05;;;5.90;99.90;;;;;;6105395;23;20006;-90
2022/04/25 01:50:26;;;;;;;11.15;3.75;;;5.90;99.90;;;;;;6101179;23;20024;-89
2022/04/25 01:52:52;;;;;;;13.73;3.22;;;5.90;99.90;;;;;;6100459;23;20006;-91
2022/04/25 01:55:18;;;;;;;15.48;3.25;;;5.90;99.90;;;;;;6103459;23;20006;-90
2022/04/25 01:57:44;;;;;;;14.52;3.55;;;5.90;99.90;;;;;;6106968;23;20028;-90
2022/04/25 02:00:10;;;;;;;13.02;3.10;;;5.90;99.90;;;;;;6108798;23;20010;-90
2022/04/25 02:02:36;;;;;;;11.38;3.10;;;5.80;99.90;;;;;;6108660;23;20064;-92
2022/04/25 02:05:04;;;;;;;44.42;3.47;;;5.80;99.90;;;;;;6110837;23;20002;-91
2022/04/25 02:07:30;;;;;;;18.52;2.90;;;5.80;99.90;;;;;;6113684;23;20010;-90
2022/04/25 02:09:56;;;;;;;12.57;3.25;;;5.80;99.90;;;;;;6112371;23;20077;-89
2022/04/25 02:12:22;;;;;;;15.23;3.45;;;5.70;99.90;;;;;;6108543;23;20013;-90
2022/04/25 02:14:48;;;;;;;12.18;3.10;;;5.80;99.90;;;;;;6105622;23;20021;-91
2022/04/25 02:17:14;;;;;;;11.57;2.85;;;5.70;99.90;;;;;;6101069;23;20085;-90
2022/04/25 02:19:43;;;;;;;14.63;4.80;;;5.70;99.90;;;;;;6102195;23;20053;-90
2022/04/25 02:22:11;;;;;;;9.82;2.80;;;5.70;99.90;;;;;;6120418;23;20010;-90
2022/04/25 02:24:38;;;;;;;14.20;2.97;;;5.70;99.90;;;;;;6106278;23;19998;-90
2022/04/25 02:27:05;;;;;;;16.15;4.53;;;5.70;99.90;;;;;;6104931;23;20068;-90
2022/04/25 02:29:33;;;;;;;12.07;2.90;;;5.60;99.90;;;;;;6103830;23;20391;-90
2022/04/25 02:32:02;;;;;;;10.80;2.90;;;5.60;99.90;;;;;;6103526;23;20393;-90
2022/04/25 02:34:29;;;;;;;13.85;4.82;;;5.60;99.90;;;;;;6103567;23;20010;-90
2022/04/25 02:36:58;;;;;;;17.15;2.90;;;5.60;99.90;;;;;;6103041;23;20010;-91
2022/04/25 02:39:24;;;;;;;9.63;3.05;;;5.60;99.90;;;;;;6104587;23;20142;-90
2022/04/25 02:41:51;;;;;;;11.60;2.75;;;5.60;99.90;;;;;;6104228;23;20002;-91
2022/04/25 02:44:20;;;;;;;9.50;2.70;;;5.60;99.90;;;;;;6103840;23;20006;-91
2022/04/25 02:46:46;;;;;;;18.05;3.58;;;5.50;99.90;;;;;;6103126;23;20525;-90
2022/04/25 02:49:11;;;;;;;19.35;4.38;;;5.50;99.90;;;;;;6102012;23;20045;-91
2022/04/25 02:51:37;;;;;;;8.38;3.08;;;5.50;99.90;;;;;;6102254;23;20009;-89
2022/04/25 02:54:03;;;;;;;13.55;3.08;;;5.50;99.90;;;;;;6102181;23;20036;-90
2022/04/25 02:56:29;;;;;;;13.30;3.55;;;5.50;99.90;;;;;;6102259;23;20010;-89
2022/04/25 02:58:55;;;;;;;12.80;3.28;;;5.50;99.90;;;;;;6102282;23;20010;-90
2022/04/25 03:01:21;;;;;;;18.52;3.60;;;5.50;99.90;;;;;;6102003;23;20383;-90
2022/04/25 03:03:46;;;;;;;13.18;4.10;;;5.50;99.90;;;;;;6102008;23;20092;-91
2022/04/25 03:06:12;;;;;;;13.07;3.13;;;5.50;99.90;;;;;;6102284;23;20025;-90
2022/04/25 03:08:39;;;;;;;12.25;3.47;;;5.50;99.90;;;;;;6102305;23;20013;-91
2022/04/25 03:11:10;;;;;;;22.23;3.22;;;5.50;99.90;;;;;;6102138;23;20164;-90
2022/04/25 03:13:37;;;;;;;;;;;5.40;99.90;;;;;;6109641;23;20049;-91
2022/04/25 03:16:04;;;;;;;14.63;3.20;;;5.40;99.90;;;;;;6114685;23;19979;-90
2022/04/25 03:18:30;;;;;;;12.05;3.20;;;5.40;99.90;;;;;;6103775;23;20018;-90
2022/04/25 03:20:56;;;;;;;8.90;2.72;;;5.30;99.90;;;;;;6102461;23;20070;-90
2022/04/25 03:23:23;;;;;;;14.15;3.63;;;5.30;99.90;;;;;;6102262;23;20093;-90
2022/04/25 03:25:50;;;;;;;10.30;2.92;;;5.20;99.90;;;;;;6102477;23;20034;-90
2022/04/25 03:28:17;;;;;;;13.15;3.10;;;5.20;99.90;;;;;;6127688;23;20009;-91
2022/04/25 03:30:43;;;;;;;19.50;3.67;;;5.10;99.90;;;;;;6125764;23;20006;-90
2022/04/25 03:33:12;;;;;;;9.43;3.15;;;5.10;99.90;;;;;;6101412;23;20010;-90
2022/04/25 03:35:42;;;;;;;12.23;3.13;;;5.00;99.90;;;;;;6102006;23;20006;-90
2022/04/25 03:38:09;;;;;;;17.25;3.50;;;4.90;99.90;;;;;;6126859;23;20112;-90
2022/04/25 03:40:35;;;;;;;12.80;2.92;;;4.90;99.90;;;;;;6140654;23;19990;-90
2022/04/25 03:43:02;;;;;;;13.30;3.50;;;4.90;99.90;;;;;;6138608;23;20043;-90
2022/04/25 03:45:28;;;;;;;13.77;4.38;;;4.80;99.90;;;;;;6130505;23;20002;-90
2022/04/25 03:47:55;;;;;;;10.93;2.70;;;4.80;99.90;;;;;;6132556;23;20017;-90
2022/04/25 03:50:20;;;;;;;15.25;2.80;;;4.70;99.90;;;;;;6132675;23;20013;-91
2022/04/25 03:52:46;;;;;;;17.80;3.17;;;4.70;99.90;;;;;;6131623;23;20499;-90
2022/04/25 03:57:59;;;;;;;10.10;2.88;;;4.60;99.90;;;;;;6157619;23;20048;-90
2022/04/25 04:00:25;;;;;;;14.15;2.92;;;4.50;99.90;;;;;;6131846;23;20008;-90
2022/04/25 04:02:51;;;;;;;10.85;2.83;;;4.60;99.90;;;;;;6138086;23;20009;-89
2022/04/25 04:05:18;;;;;;;13.15;3.00;;;4.50;99.90;;;;;;6132469;23;20441;-90
2022/04/25 04:07:44;;;;;;;8.32;2.63;;;4.50;99.90;;;;;;6131447;23;20012;-90
2022/04/25 04:10:10;;;;;;;14.82;3.20;;;4.50;99.90;;;;;;6130550;23;20520;-89
2022/04/25 04:12:36;;;;;;;9.23;2.90;;;4.50;99.90;;;;;;6133654;23;20005;-89
2022/04/25 04:15:06;;;;;;;19.00;3.72;;;4.30;99.90;;;;;;6130571;23;20009;-89
2022/04/25 04:17:33;;;;;;;13.57;3.38;;;4.30;99.90;;;;;;6131207;23;20014;-90
2022/04/25 04:19:59;;;;;;;14.82;3.38;;;4.30;99.90;;;;;;6130866;23;20084;-90
2022/04/25 04:22:29;;;;;;;12.30;3.53;;;4.20;99.90;;;;;;6130661;23;20009;-89
2022/04/25 04:25:06;;;;;;;9.40;2.55;;;4.20;99.90;;;;;;6130725;23;20072;-90
2022/04/25 04:27:32;;;;;;;13.30;3.20;;;4.20;99.90;;;;;;6130815;23;20070;-89
2022/04/25 04:29:59;;;;;;;13.23;3.03;;;4.20;99.90;;;;;;6130206;23;20009;-89
2022/04/25 04:32:30;;;;;;;10.25;3.20;;;4.20;99.90;;;;;;6130377;23;20013;-90
2022/04/25 04:34:56;;;;;;;8.48;2.65;;;4.20;99.90;;;;;;6134403;23;20010;-90
2022/04/25 04:37:23;;;;;;;7.97;3.72;;;4.20;99.90;;;;;;6135828;23;20018;-89
2022/04/25 04:39:48;;;;;;;7.70;2.63;;;4.20;99.90;;;;;;6130464;23;20044;-90
2022/04/25 04:42:14;;;;;;;13.75;3.50;;;4.30;99.90;;;;;;6130886;23;20009;-90
2022/04/25 04:44:42;;;;;;;10.32;3.67;;;4.20;99.90;;;;;;6131194;23;20349;-90
2022/04/25 04:47:08;;;;;;;15.02;3.58;;;4.20;99.90;;;;;;6131067;23;19998;-91
2022/04/25 04:49:34;;;;;;;12.68;3.42;;;4.20;99.90;;;;;;6135205;23;20083;-89
2022/04/25 04:52:00;;;;;;;16.30;3.63;;;4.20;99.90;;;;;;6143588;23;20014;-91
2022/04/25 04:54:27;;;;;;;8.95;3.38;;;4.20;99.90;;;;;;6142284;23;20265;-90
2022/04/25 04:56:52;;;;;;;9.43;2.90;;;4.20;99.90;;;;;;6146824;23;20020;-90
2022/04/25 04:59:18;;;;;;;12.85;2.80;;;4.20;99.90;;;;;;6151726;23;20029;-89
2022/04/25 05:01:44;;;;;;;7.63;2.63;;;4.20;99.90;;;;;;6148119;23;20337;-90
2022/04/25 05:04:10;;;;;;;11.73;2.45;;;4.20;99.90;;;;;;6147464;23;20002;-89
2022/04/25 05:06:36;;;;;;;8.05;2.67;;;4.20;99.90;;;;;;6135871;23;20032;-90
2022/04/25 05:09:01;;;;;;;6.97;2.50;;;4.20;99.90;;;;;;6133924;23;20115;-90
2022/04/25 05:11:29;;;;;;;10.93;3.38;;;4.20;99.90;;;;;;6134610;23;20005;-91
2022/04/25 05:13:55;;;;;;;9.77;2.90;;;4.20;99.90;;;;;;6137045;23;20006;-89
2022/04/25 05:16:21;;;;;;;10.50;3.20;;;4.20;99.90;;;;;;6134849;23;20429;-89
2022/04/25 05:18:46;;;;;;;11.43;3.25;;;4.20;99.90;;;;;;6133543;23;20010;-90
2022/04/25 05:21:14;;;;;;;12.85;4.00;;;4.20;99.90;;;;;;6133643;23;20025;-90
2022/04/25 05:23:42;;;;;;;9.02;2.67;;;4.30;99.90;;;;;;6133061;23;20032;-91
2022/04/25 05:26:08;;;;;;;11.13;3.40;;;4.30;99.90;;;;;;6138125;23;20088;-90
2022/04/25 05:28:34;;;;;;;11.63;3.75;;;4.30;99.90;;;;;;6148146;23;20001;-90
2022/04/25 05:31:00;;;;;;;12.35;3.05;;;4.40;99.90;;;;;;6148806;23;20013;-90
2022/04/25 05:33:25;;;;;;;12.85;3.22;;;4.40;99.90;;;;;;6167847;23;20005;-90
2022/04/25 05:35:52;;;;;;;11.00;3.08;;;4.50;99.90;;;;;;6132527;23;20496;-90
2022/04/25 05:38:18;;;;;;;12.27;3.55;;;4.60;99.90;;;;;;6131096;23;20021;-90
2022/04/25 05:40:47;;;;;;;13.00;3.03;;;4.60;99.90;;;;;;6130968;23;20005;-91
2022/04/25 05:43:13;;;;;;;12.65;2.97;;;4.70;99.90;;;;;;6130825;23;20020;-90
2022/04/25 05:45:39;;;;;;;16.00;3.60;;;4.70;99.90;;;;;;6131154;23;19998;-90
2022/04/25 05:53:33;;;;;;;17.25;3.60;;;4.90;99.90;;;;;;6155169;23;20461;-92
2022/04/25 05:55:59;;;;;;;12.48;3.97;;;4.90;99.90;;;;;;6130783;23;20009;-90
2022/04/25 05:58:24;;;;;;;13.10;3.42;;;5.00;99.90;;;;;;6128916;23;20024;-91
2022/04/25 06:00:50;;;;;;;13.52;3.13;;;5.10;99.90;;;;;;6128730;23;20426;-90
2022/04/25 06:03:19;;;;;;;18.65;3.63;;;5.10;99.90;;;;;;6129281;23;20388;-91
2022/04/25 06:05:45;;;;;;;9.75;2.70;;;5.20;99.90;;;;;;6129773;23;20012;-93
2022/04/25 06:08:11;;;;;;;11.40;3.78;;;5.20;99.90;;;;;;6129818;23;20013;-91
2022/04/25 06:10:36;;;;;;;14.35;3.58;;;5.30;99.90;;;;;;6130823;23;20016;-93
2022/04/25 06:13:02;;;;;;;10.93;3.08;;;5.30;99.90;;;;;;6139527;23;20005;-91
2022/04/25 06:15:29;;;;;;;12.60;3.85;;;5.40;99.90;;;;;;6145270;23;20005;-91
2022/04/25 06:17:55;;;;;;;9.35;2.75;;;5.50;99.90;;;;;;6144943;23;20018;-92
2022/04/25 06:20:24;;;;;;;11.10;3.75;;;5.50;99.90;;;;;;6168868;23;20001;-92
2022/04/25 06:22:51;;;;;;;18.40;3.90;;;5.60;99.90;;;;;;6134084;23;20006;-93
2022/04/25 06:25:17;;;;;;;12.20;3.38;;;5.70;99.90;;;;;;6132512;23;20088;-92
2022/04/25 06:27:43;;;;;;;15.43;4.85;;;5.80;99.90;;;;;;6131475;23;20425;-91
2022/04/25 06:30:09;;;;;;;21.40;3.80;;;5.80;99.90;;;;;;6132193;23;20083;-92
2022/04/25 06:32:36;;;;;;;10.65;3.28;;;5.90;99.90;;;;;;6130755;23;20006;-92
2022/04/25 06:35:02;;;;;;;11.85;3.55;;;5.90;99.90;;;;;;6130982;23;20058;-91
2022/04/25 06:37:28;;;;;;;7.43;2.60;;;6.00;99.90;;;;;;6130592;23;20067;-91
2022/04/25 06:39:53;;;;;;;15.25;2.85;;;6.00;99.90;;;;;;6129843;23;20010;-92
2022/04/25 06:42:20;;;;;;;12.70;3.33;;;6.10;99.90;;;;;;6129820;23;20002;-92
2022/04/25 06:44:46;;;;;;;11.55;3.22;;;6.10;99.90;;;;;;6130141;23;20028;-92
2022/04/25 06:47:12;;;;;;;12.55;3.75;;;6.20;99.90;;;;;;6130286;23;20033;-93
2022/04/25 06:49:38;;;;;;;14.43;3.35;;;6.20;99.90;;;;;;6130735;23;20092;-93
2022/04/25 06:52:06;;;;;;;11.02;3.58;;;6.30;99.90;;;;;;6156939;23;20005;-93
2022/04/25 06:54:35;;;;;;;12.25;3.05;;;6.30;99.90;;;;;;6147899;23;20048;-94
2022/04/25 06:57:01;;;;;;;8.90;3.00;;;6.30;99.90;;;;;;6134566;23;20096;-93
2022/04/25 06:59:27;;;;;;;10.50;3.00;;;6.40;99.90;;;;;;6131188;23;20151;-92
2022/04/25 07:01:53;;;;;;;8.70;3.47;;;6.50;99.90;;;;;;6129498;23;20505;-92
2022/04/25 07:04:19;;;;;;;12.75;2.95;;;6.60;99.90;;;;;;6129713;23;20060;-90
2022/04/25 07:06:46;;;;;;;14.35;3.47;;;6.70;99.90;;;;;;6128800;23;20014;-94
2022/04/25 07:09:14;;;;;;;13.73;3.20;;;6.70;99.90;;;;;;6130082;23;20457;-94
2022/04/25 07:11:45;;;;;;;10.43;2.35;;;6.80;99.90;;;;;;6130316;23;20438;-92
2022/04/25 07:14:15;;;;;;;10.15;3.33;;;6.90;99.90;;;;;;6130828;23;20009;-92
2022/04/25 07:16:45;;;;;;;10.77;2.83;;;7.00;99.90;;;;;;6134281;23;20032;-91
2022/04/25 07:19:11;;;;;;;8.98;3.00;;;7.10;99.90;;;;;;6133071;23;20441;-91
2022/04/25 07:29:50;;;;;;;7.38;2.70;;;7.50;99.90;;;;;;6162072;23;20012;-91
2022/04/25 07:32:16;;;;;;;5.82;2.20;;;7.60;99.90;;;;;;6161658;23;20088;-92
2022/04/25 07:34:47;;;;;;;10.77;2.80;;;7.60;99.90;;;;;;6148713;23;20025;-91
2022/04/25 07:37:16;;;;;;;;;;;7.60;99.90;;;;;;6149236;23;20032;-93
2022/04/25 07:39:42;;;;;;;11.18;2.83;;;7.60;99.90;;;;;;6144572;23;19912;-91
2022/04/25 07:42:09;;;;;;;7.82;2.20;;;7.60;99.90;;;;;;6141504;23;20108;-90
2022/04/25 07:44:34;;;;;;;12.23;2.70;;;7.70;99.90;;;;;;6137997;23;19997;-91
2022/04/25 07:47:00;;;;;;;13.15;3.88;;;7.80;99.90;;;;;;6137742;23;20025;-93
2022/04/25 07:49:27;;;;;;;8.27;2.58;;;7.80;99.90;;;;;;6138838;23;20022;-94
2022/04/25 07:51:55;;;;;;;12.13;2.80;;;7.80;99.90;;;;;;6143122;23;20002;-94
2022/04/25 07:54:22;;;;;;;12.27;2.45;;;7.80;99.90;;;;;;6141680;23;20025;-96
2022/04/25 07:56:49;;;;;;;13.32;2.80;;;7.90;99.90;;;;;;6144380;23;20041;-95
2022/04/25 07:59:16;;;;;;;17.58;4.13;;;7.90;99.90;;;;;;6150347;23;20017;-95
2022/04/25 08:01:42;;;;;;;8.77;3.00;;;8.00;99.90;;;;;;6143933;23;20021;-94
2022/04/25 08:04:08;;;;;;;8.85;2.90;;;8.10;99.90;;;;;;6121827;23;20025;-94
2022/04/25 08:06:34;;;;;;;13.20;3.53;;;8.20;99.90;;;;;;6136600;23;20083;-92
2022/04/25 08:09:03;;;;;;;9.68;2.75;;;8.30;99.90;;;;;;6133597;23;20002;-93
2022/04/25 08:11:29;;;;;;;10.55;2.95;;;8.40;99.90;;;;;;6133811;23;20033;-94
2022/04/25 08:19:34;;;;;;;12.27;2.33;;;8.90;99.90;;;;;;6157872;23;20013;-92
2022/04/25 08:22:00;;;;;;;8.45;2.13;;;9.10;99.90;;;;;;6132484;23;20009;-91
2022/04/25 08:24:27;;;;;;;13.10;3.17;;;9.30;99.90;;;;;;6132476;23;20006;-91
2022/04/25 08:26:55;;;;;;;14.63;2.60;;;9.40;99.90;;;;;;6131979;23;20002;-90
2022/04/25 08:29:21;;;;;;;7.85;2.85;;;9.50;99.90;;;;;;6132068;23;20056;-91
2022/04/25 08:31:49;;;;;;;8.48;2.50;;;9.60;99.90;;;;;;6134504;23;20015;-90
2022/04/25 08:34:15;;;;;;;9.73;2.95;;;9.60;99.90;;;;;;6134670;23;20005;-90
2022/04/25 08:36:41;;;;;;;7.18;2.92;;;9.70;99.90;;;;;;6132323;23;20123;-91
2022/04/25 08:39:07;;;;;;;10.27;3.00;;;9.70;99.90;;;;;;6135167;23;20005;-90
2022/04/25 08:41:41;;;;;;;8.85;2.97;;;9.60;99.90;;;;;;6139475;23;20013;-90
2022/04/25 08:44:08;;;;;;;7.78;2.67;;;9.60;99.90;;;;;;6138791;23;20008;-90
2022/04/25 08:46:35;;;;;;;9.43;2.92;;;9.80;99.90;;;;;;6132445;23;20009;-91
2022/04/25 08:49:05;;;;;;;10.80;2.85;;;9.90;99.90;;;;;;6130791;23;20021;-90
2022/04/25 08:51:34;;;;;;;9.93;2.65;;;9.90;99.90;;;;;;6131396;23;20028;-92
2022/04/25 08:54:02;;;;;;;17.25;3.05;;;10.00;99.90;;;;;;6131557;23;20037;-90
2022/04/25 08:56:28;;;;;;;7.47;3.30;;;10.00;99.90;;;;;;6142730;23;20076;-89
2022/04/25 08:58:56;;;;;;;11.02;2.90;;;10.00;99.90;;;;;;6135741;23;20009;-91
2022/04/25 09:01:22;;;;;;;19.70;3.55;;;9.90;99.90;;;;;;6132770;23;20084;-89
2022/04/25 09:03:48;;;;;;;14.77;3.80;;;9.90;99.90;;;;;;6129151;23;20060;-90
2022/04/25 09:06:13;;;;;;;9.68;3.20;;;9.90;99.90;;;;;;6131315;23;20417;-90
2022/04/25 09:08:39;;;;;;;13.10;3.95;;;9.80;99.90;;;;;;6130940;23;20006;-90
2022/04/25 09:13:51;;;;;;;10.48;3.08;;;9.80;99.90;;;;;;6156661;23;20060;-90
2022/04/25 09:16:16;;;;;;;12.02;3.63;;;9.90;99.90;;;;;;6130773;23;20036;-91
2022/04/25 09:18:43;;;;;;;12.13;3.58;;;9.90;99.90;;;;;;6130797;23;20021;-90
2022/04/25 09:21:14;;;;;;;10.27;4.00;;;9.80;99.90;;;;;;6130701;23;20084;-90
2022/04/25 09:23:40;;;;;;;13.98;4.30;;;9.80;99.90;;;;;;6130761;23;20337;-90
2022/04/25 09:26:21;;;;;;;14.55;4.60;;;9.80;99.90;;;;;;6130469;23;20025;-89
2022/04/25 09:28:53;;;;;;;16.52;4.10;;;9.80;99.90;;;;;;6130639;23;20089;-90
2022/04/25 09:31:21;;;;;;;12.88;4.15;;;9.70;99.90;;;;;;6131206;23;20425;-90
2022/04/25 09:33:48;;;;;;;17.65;4.15;;;9.70;99.90;;;;;;6130331;23;20039;-90
2022/04/25 09:36:14;;;;;;;9.88;4.35;;;9.70;99.90;;;;;;6132267;23;20025;-91
2022/04/25 09:38:42;;;;;;;13.13;4.20;;;9.70;99.90;;;;;;6144947;23;20001;-89
2022/04/25 09:41:10;;;;;;;10.73;4.05;;;9.70;99.90;;;;;;6152622;23;20013;-90
2022/04/25 09:43:38;;;;;;;9.60;4.13;;;9.70;99.90;;;;;;6146690;23;20009;-90
2022/04/25 09:46:14;;;;;;;10.65;4.10;;;9.70;99.90;;;;;;6130982;23;20008;-88
2022/04/25 09:48:43;;;;;;;9.43;4.10;;;9.80;99.90;;;;;;6130547;23;20013;-90
2022/04/25 09:51:11;;;;;;;12.82;4.20;;;9.70;99.90;;;;;;6130245;23;20517;-89
2022/04/25 09:53:45;;;;;;;15.60;4.43;;;9.70;99.90;;;;;;6130001;23;20556;-90
2022/04/25 09:56:25;;;;;;;14.45;4.05;;;9.70;99.90;;;;;;6129793;23;20132;-90
2022/04/25 09:59:08;;;;;;;11.73;5.57;;;9.80;99.90;;;;;;6129180;23;20018;-90
2022/04/25 10:01:39;;;;;;;10.88;4.70;;;9.90;99.90;;;;;;6131283;23;20002;-90
2022/04/25 10:04:26;;;;;;;10.73;4.00;;;9.90;99.90;;;;;;6128738;23;20010;-90
2022/04/25 10:06:53;;;;;;;13.85;4.40;;;9.90;99.90;;;;;;6129168;23;20005;-90
2022/04/25 10:09:20;;;;;;;19.15;5.03;;;9.90;99.90;;;;;;6130270;23;20020;-90
2022/04/25 10:11:48;;;;;;;14.95;4.85;;;10.00;99.90;;;;;;6129925;23;20006;-91
2022/04/25 10:14:16;;;;;;;10.40;4.75;;;10.10;99.90;;;;;;6130088;23;20425;-90
2022/04/25 10:16:41;;;;;;;15.20;5.40;;;10.10;99.90;;;;;;6140262;23;20339;-91
2022/04/25 10:19:08;;;;;;;11.32;5.10;;;10.10;99.90;;;;;;6132518;23;20341;-90
2022/04/25 10:21:34;;;;;;;9.30;4.85;;;10.10;99.90;;;;;;6137047;23;20008;-90
2022/04/25 10:24:00;;;;;;;12.75;4.82;;;10.10;99.90;;;;;;6139784;23;20069;-91
2022/04/25 10:26:30;;;;;;;9.68;5.10;;;10.10;99.90;;;;;;6140559;23;20012;-90
2022/04/25 10:29:02;;;;;;;15.90;5.18;;;10.10;99.90;;;;;;6136907;23;20013;-91
2022/04/25 10:31:38;;;;;;;9.43;4.97;;;10.10;99.90;;;;;;6136497;23;20010;-90
2022/04/25 10:34:04;;;;;;;14.63;5.22;;;10.10;99.90;;;;;;6136508;23;20011;-91
2022/04/25 10:36:39;;;;;;;14.40;5.25;;;10.10;99.90;;;;;;6136391;23;20036;-91
2022/04/25 10:39:20;;;;;;;12.63;5.50;;;10.00;99.90;;;;;;6130891;23;20040;-91
2022/04/25 10:44:45;;;;;;;15.85;5.50;;;10.00;99.90;;;;;;6156442;23;19911;-90
2022/04/25 10:47:18;;;;;;;14.68;5.03;;;10.00;99.90;;;;;;6130632;23;20437;-90
2022/04/25 10:49:53;;;;;;;12.75;5.30;;;10.00;99.90;;;;;;6129548;23;20018;-90
2022/04/25 10:52:34;;;;;;;14.13;5.38;;;9.90;99.90;;;;;;6129023;23;20016;-89
2022/04/25 10:55:19;;;;;;;18.20;5.22;;;10.00;99.90;;;;;;6129261;23;20006;-91
2022/04/25 10:58:04;;;;;;;14.05;5.20;;;10.10;99.90;;;;;;6131021;23;20207;-91
2022/04/25 11:00:41;;;;;;;11.75;5.22;;;10.20;99.90;;;;;;6131374;23;20006;-90
2022/04/25 11:03:23;;;;;;;12.05;5.75;;;10.40;99.90;;;;;;6130837;23;20032;-90
2022/04/25 11:06:00;;;;;;;12.45;5.22;;;10.60;99.90;;;;;;6132003;23;20016;-91
2022/04/25 11:08:34;;;;;;;14.07;6.53;;;10.70;99.90;;;;;;6132045;23;20016;-90
2022/04/25 11:11:03;;;;;;;17.10;6.40;;;10.90;99.90;;;;;;6131773;23;20001;-90
2022/04/25 11:13:51;;;;;;;15.43;6.68;;;10.90;99.90;;;;;;6131903;23;20019;-90
2022/04/25 11:16:18;;;;;;;11.35;5.72;;;11.00;99.90;;;;;;6131318;23;20040;-90
2022/04/25 11:18:45;;;;;;;19.38;7.30;;;11.10;99.90;;;;;;6131465;23;20017;-90
2022/04/25 11:21:19;;;;;;;13.85;5.90;;;11.20;99.90;;;;;;6131240;23;20064;-90
2022/04/25 11:23:49;;;;;;;14.45;6.47;;;11.30;99.90;;;;;;6131262;23;20092;-90
2022/04/25 11:26:21;;;;;;;11.45;6.30;;;11.30;99.90;;;;;;6131849;23;20005;-90
2022/04/25 11:29:01;;;;;;;12.55;6.40;;;11.40;99.90;;;;;;6132096;23;20012;-91
2022/04/25 11:31:31;;;;;;;15.57;6.38;;;11.40;99.90;;;;;;6131104;23;20012;-90
2022/04/25 11:34:00;;;;;;;16.02;6.07;;;11.40;99.90;;;;;;6131850;23;20006;-90
2022/04/25 11:36:26;;;;;;;16.75;5.85;;;11.50;99.90;;;;;;6148899;23;20003;-90
2022/04/25 11:41:38;;;;;;;17.20;7.00;;;11.60;99.90;;;;;;6160284;23;20017;-91
2022/04/25 11:44:05;;;;;;;15.48;6.75;;;12.00;99.90;;;;;;6133088;23;20566;-91
2022/04/25 11:46:32;;;;;;;12.82;6.38;;;12.40;99.80;;;;;;6131362;23;20080;-91
2022/04/25 11:48:58;;;;;;;11.63;6.22;;;12.60;98.80;;;;;;6132339;23;20029;-90
2022/04/25 11:51:29;;;;;;;17.15;6.70;;;12.70;97.90;;;;;;6132244;23;20016;-91
2022/04/25 11:53:58;;;;;;;13.73;6.30;;;12.80;97.20;;;;;;6131842;23;20425;-91
2022/04/25 11:56:25;;;;;;;13.07;6.72;;;12.80;96.70;;;;;;6131794;23;20021;-91
2022/04/25 11:58:52;;;;;;;13.48;6.20;;;12.90;96.30;;;;;;6131374;23;20014;-90
2022/04/25 12:01:39;;;;;;;14.23;5.43;;;12.90;95.60;;;;;;6132088;23;20052;-91
2022/04/25 12:04:24;;;;;;;11.65;6.07;;;12.90;95.60;;;;;;6131797;23;20014;-92
2022/04/25 12:07:03;;;;;;;14.38;5.88;;;12.90;95.30;;;;;;6131074;23;20048;-91
2022/04/25 12:18:10;;;;;;;18.15;6.90;;;12.60;94.80;;;;;;6156680;23;20024;-91
2022/04/25 12:20:35;;;;;;;14.93;6.88;;;12.50;94.80;;;;;;6131183;23;20002;-91
2022/04/25 12:23:01;;;;;;;12.63;6.45;;;12.40;94.90;;;;;;6132775;23;20043;-91
2022/04/25 12:25:29;;;;;;;12.90;6.35;;;12.40;94.90;;;;;;6139081;23;20008;-90
2022/04/25 12:28:15;;;;;;;12.23;6.38;;;12.40;95.00;;;;;;6140767;23;20018;-90
2022/04/25 12:30:54;;;;;;;11.93;6.13;;;12.40;95.00;;;;;;6132388;23;20005;-91
2022/04/25 12:33:25;;;;;;;11.57;7.15;;;12.40;94.90;;;;;;6132123;23;20001;-92
2022/04/25 12:36:18;;;;;;;11.73;6.50;;;12.50;94.80;;;;;;6130517;23;20005;-90
2022/04/25 12:38:57;;;;;;;17.35;6.22;;;12.50;94.50;;;;;;6111554;23;20018;-91
2022/04/25 12:41:27;;;;;;;10.70;5.75;;;12.60;94.40;;;;;;6130742;23;20068;-92
2022/04/25 12:43:55;;;;;;;11.20;5.75;;;12.80;94.20;;;;;;6130415;23;20064;-91
2022/04/25 12:46:44;;;;;;;11.13;6.00;;;13.00;93.80;;;;;;6129905;23;20073;-91
2022/04/25 12:49:34;;;;;;;8.35;5.00;;;13.20;93.40;;;;;;6132556;23;20033;-91
2022/04/25 12:52:00;;;;;;;11.85;5.95;;;13.30;92.90;;;;;;6114579;23;20005;-91
2022/04/25 12:54:37;;;;;;;12.93;7.13;;;13.30;92.50;;;;;;6137904;23;20009;-91
2022/04/25 12:57:08;;;;;;;19.00;6.28;;;13.40;92.20;;;;;;6135822;23;20097;-92
2022/04/25 12:59:34;;;;;;;10.27;5.95;;;13.50;91.90;;;;;;6131921;23;20017;-92
2022/04/25 13:02:10;;;;;;;20.15;7.38;;;13.70;91.60;;;;;;6132012;23;20032;-92
2022/04/25 13:04:55;;;;;;;11.65;6.43;;;13.90;91.20;;;;;;6132381;23;20398;-92
2022/04/25 13:07:30;;;;;;;14.73;6.68;;;14.00;90.30;;;;;;6135886;23;20083;-92
2022/04/25 13:10:00;;;;;;;12.10;6.22;;;14.10;89.50;;;;;;6137995;23;20008;-91
2022/04/25 13:13:07;;;;;;;11.73;5.85;;;14.00;88.90;;;;;;6141363;23;20013;-92
2022/04/25 13:15:33;;;;;;;14.40;6.38;;;14.00;88.70;;;;;;5994775;23;20019;-92
2022/04/25 13:17:59;;;;;;;10.68;5.95;;;13.90;87.50;;;;;;6016254;23;20064;-91
2022/04/25 13:20:28;;;;;;;12.45;5.45;;;13.80;87.00;;;;;;6013153;23;20018;-91
2022/04/25 13:23:00;;;;;;;14.52;5.47;;;13.80;86.90;;;;;;6020445;23;20003;-94
2022/04/25 13:25:26;;;;;;;12.20;5.22;;;13.80;86.10;;;;;;6018141;23;20007;-91
2022/04/25 13:27:53;;;;;;;10.18;5.30;;;13.60;86.10;;;;;;6011801;23;20012;-92
2022/04/25 13:30:20;;;;;;;10.77;5.35;;;13.70;86.10;;;;;;6010420;23;20016;-93
2022/04/25 13:32:47;;;;;;;9.52;4.57;;;13.80;85.60;;;;;;6009048;23;20012;-92
2022/04/25 13:35:14;;;;;;;11.13;5.93;;;14.10;85.20;;;;;;6008495;23;20004;-91
2022/04/25 13:37:41;;;;;;;10.88;4.82;;;14.50;84.50;;;;;;6007877;23;20023;-91
2022/04/25 13:40:07;;;;;;;9.48;4.65;;;14.80;82.00;;;;;;6007542;23;20000;-92